Amity, ME

11:41 AM EDT on March 27, 2015 (GMT -0400)
Sunnyside Family Farm - Ferme Ensoleillee Familiale | | Change Station
CLOSE
Current Station
Personal Weather Station
Location: Linneus, ME
Elevation: 594 ft
Nearby Weather Stations

Elev 594 ft 46.07 °N, 67.99 °W | Updated 53 seconds ago

Overcast
Overcast
38.2 °F
Feels Like 35 °F
N
4.0
Wind Variable Wind from NNW
Gusts 8.0 mph

Today
High -- | Low -- °F
--% Chance of Precip.
Yesterday
High -- | Low -- °F
Precip. -- in
6:21 AM 6:52 PM
First Quarter, 53% visible
Pressure 29.66 in
Visibility 10.0 miles
Clouds Few 1400 ft
Overcast 3000 ft
Windchill 35 °F
Dew Point 33 °F
Humidity 81%
Rainfall 0.00 in
Snow Depth Not available.
UV 2 out of 12
Pollen .60 out of 12
Air Quality Not available.
Flu Activity Not available.
SPECI KHUL 271508Z AUTO 35004KT 10SM FEW014 OVC030 03/M02 A2966 RMK AO2 T00331017

More Conditions Fewer Conditions

Pressure 29.66 in
Visibility 10.0 miles
Clouds Few 1400 ft
Overcast 3000 ft
Windchill 35 °F
Dew Point 33 °F
Humidity 81%
Rainfall 0.00 in
Snow Depth Not available.
UV 2 out of 12
Pollen .60 out of 12
Air Quality Not available.
Flu Activity Not available.
SPECI KHUL 271508Z AUTO 35004KT 10SM FEW014 OVC030 03/M02 A2966 RMK AO2 T00331017

More Conditions Fewer Conditions

10-Day Weather Forecast

Almanac

Astronomy

Mar. 27, 2015 Rise Set
Actual Time
Civil Twilight
Nautical Twilight
Astronomical Twilight
Moon
Length of Visible Light
Length of Day
Tomorrow will be .
, % of the Moon is Illuminated

Today's Extremes

State Highs State Lows

Community

WunderPhotos

Upload Photos

1,808,762 photos uploaded!

WunderBlogs® & News

Nearby

Air Quality

  Air Quality AQ Index Pollutant
Not available.

Snow Depth

Station Depth Elevation

Earthquake Activity

City Distance Mag. Time & Date
Minimum magnitude displayed is 2.5.

Coastal Water Temperatures

Place Temperature

Stations

Nearby Weather Stations

Station Location Temp. Windchill Dew Point Humidity Wind Precip. Elev Updated Type